createdAt,value
2019-04-26T00:01:56.251Z,2.03
2019-04-26T00:04:25.303Z,1.87
2019-04-26T00:06:54.921Z,1.87
2019-04-26T00:09:32.702Z,2.10
2019-04-26T00:12:19.549Z,2.00
2019-04-26T00:15:06.812Z,2.00
2019-04-26T00:17:41.424Z,2.10
2019-04-26T00:20:11.924Z,2.37
2019-04-26T00:22:47.636Z,2.60
2019-04-26T00:25:18.656Z,2.40
2019-04-26T00:27:48.301Z,2.53
2019-04-26T00:30:17.633Z,2.33
2019-04-26T00:32:46.627Z,2.10
2019-04-26T00:35:15.979Z,2.70
2019-04-26T00:37:45.346Z,2.60
2019-04-26T00:40:14.870Z,2.47
2019-04-26T00:42:46.157Z,2.30
2019-04-26T00:45:16.742Z,2.53
2019-04-26T00:47:47.426Z,2.60
2019-04-26T00:50:19.115Z,2.47
2019-04-26T00:52:50.507Z,1.90
2019-04-26T00:55:22.010Z,1.73
2019-04-26T00:57:57.945Z,1.63
2019-04-26T01:00:29.347Z,1.50
2019-04-26T01:02:59.249Z,1.50
2019-04-26T01:05:30.259Z,1.57
2019-04-26T01:07:59.686Z,1.67
2019-04-26T01:10:29.090Z,1.30
2019-04-26T01:12:58.266Z,1.60
2019-04-26T01:15:28.429Z,1.80
2019-04-26T01:17:57.987Z,1.60
2019-04-26T01:20:30.318Z,1.57
2019-04-26T01:23:03.126Z,1.50
2019-04-26T01:25:40.095Z,1.33
2019-04-26T01:28:13.269Z,1.50
2019-04-26T01:30:45.278Z,1.40
2019-04-26T01:33:15.170Z,1.60
2019-04-26T01:35:44.590Z,1.50
2019-04-26T01:38:16.215Z,1.50
2019-04-26T01:40:50.038Z,1.47
2019-04-26T01:43:41.181Z,1.53
2019-04-26T01:46:16.420Z,1.60
2019-04-26T01:49:00.419Z,1.70
2019-04-26T01:51:44.677Z,1.33
2019-04-26T01:54:17.137Z,1.37
2019-04-26T01:56:49.282Z,1.30
2019-04-26T01:59:19.319Z,1.40
2019-04-26T02:02:07.725Z,1.50
2019-04-26T02:04:39.411Z,1.80
2019-04-26T02:07:08.974Z,1.30
2019-04-26T02:09:38.707Z,1.87
2019-04-26T02:12:08.351Z,1.57
2019-04-26T02:14:37.444Z,1.73
2019-04-26T02:17:06.614Z,1.50
2019-04-26T02:19:35.830Z,1.43
2019-04-26T02:22:21.363Z,1.77
2019-04-26T02:24:51.515Z,1.60
2019-04-26T02:27:24.830Z,1.43
2019-04-26T02:29:54.013Z,1.37
2019-04-26T02:32:23.325Z,1.60
2019-04-26T02:34:53.471Z,1.67
2019-04-26T02:37:22.702Z,1.57
2019-04-26T02:39:54.509Z,1.60
2019-04-26T02:42:35.000Z,1.60
2019-04-26T02:45:57.689Z,1.77
2019-04-26T02:48:50.245Z,1.53
2019-04-26T02:51:24.126Z,1.70
2019-04-26T02:54:05.618Z,1.93
2019-04-26T02:56:40.859Z,3.20
2019-04-26T02:59:36.195Z,2.93
2019-04-26T03:02:07.769Z,2.60
2019-04-26T03:04:39.817Z,2.70
2019-04-26T03:07:32.089Z,2.77
2019-04-26T03:10:03.560Z,2.30
2019-04-26T03:12:37.493Z,2.43
2019-04-26T03:15:18.354Z,2.00
2019-04-26T03:17:56.887Z,2.20
2019-04-26T03:20:36.294Z,2.10
2019-04-26T03:23:22.501Z,2.53
2019-04-26T03:26:23.431Z,1.83
2019-04-26T03:29:26.458Z,2.07
2019-04-26T03:32:17.391Z,2.40
2019-04-26T03:34:56.086Z,2.40
2019-04-26T03:37:58.836Z,2.60
2019-04-26T03:40:44.607Z,2.43
2019-04-26T03:43:51.591Z,2.37
2019-04-26T03:46:34.861Z,2.67
2019-04-26T03:49:44.214Z,2.47
2019-04-26T03:52:57.339Z,2.50
2019-04-26T03:56:03.964Z,3.10
2019-04-26T03:59:00.757Z,3.73
2019-04-26T04:01:35.421Z,3.53
2019-04-26T04:04:24.767Z,3.30
2019-04-26T04:07:04.273Z,3.90
2019-04-26T04:09:28.628Z,4.07
2019-04-26T04:12:11.860Z,4.33
2019-04-26T04:14:55.105Z,4.27
2019-04-26T04:17:39.660Z,4.03
2019-04-26T04:20:26.393Z,4.33
2019-04-26T04:23:12.663Z,4.70
2019-04-26T04:25:47.273Z,5.23
2019-04-26T04:28:30.743Z,5.23
2019-04-26T04:31:29.349Z,4.27
2019-04-26T04:34:21.783Z,5.40
2019-04-26T04:36:53.954Z,5.53
2019-04-26T04:39:38.807Z,6.37
2019-04-26T04:42:38.029Z,7.63
2019-04-26T04:45:59.257Z,7.70
2019-04-26T04:48:53.900Z,9.27
2019-04-26T04:51:36.798Z,9.50
2019-04-26T04:54:25.055Z,10.50
2019-04-26T04:57:19.170Z,10.10
2019-04-26T05:00:14.987Z,10.53
2019-04-26T05:02:56.787Z,11.00
2019-04-26T05:06:14.233Z,10.37
2019-04-26T05:08:58.623Z,10.40
2019-04-26T05:11:37.870Z,11.10
2019-04-26T05:14:29.695Z,10.53
2019-04-26T05:17:53.656Z,9.93
2019-04-26T05:20:32.934Z,9.87
2019-04-26T05:23:55.233Z,10.40
2019-04-26T05:27:08.677Z,8.93
2019-04-26T05:30:36.330Z,10.00
2019-04-26T05:33:15.900Z,8.83
2019-04-26T05:36:41.542Z,8.27
2019-04-26T05:39:21.799Z,10.03
2019-04-26T05:42:30.261Z,10.10
2019-04-26T05:45:36.955Z,8.53
2019-04-26T05:48:36.447Z,10.57
2019-04-26T05:51:37.852Z,11.07
2019-04-26T05:54:58.279Z,12.60
2019-04-26T05:58:00.006Z,12.73
2019-04-26T06:01:00.685Z,13.17
2019-04-26T06:04:16.518Z,12.80
2019-04-26T06:07:01.357Z,12.23
2019-04-26T06:10:20.978Z,12.30
2019-04-26T06:13:28.584Z,13.30
2019-04-26T06:16:10.615Z,12.80
2019-04-26T06:19:02.811Z,12.87
2019-04-26T06:21:53.787Z,13.37
2019-04-26T06:24:58.747Z,12.77
2019-04-26T06:27:58.405Z,13.30
2019-04-26T06:30:51.502Z,13.70
2019-04-26T06:33:43.874Z,12.17
2019-04-26T06:36:21.602Z,12.63
2019-04-26T06:39:30.409Z,10.63
2019-04-26T06:42:31.199Z,11.60
2019-04-26T06:46:38.379Z,11.10
2019-04-26T06:49:35.351Z,11.40
2019-04-26T10:50:50.808Z,12.03
2019-04-26T10:53:43.917Z,4.13
2019-04-26T10:56:29.327Z,4.50
2019-04-26T10:59:12.879Z,4.50
2019-04-26T11:01:42.249Z,4.63
2019-04-26T11:04:11.526Z,4.33
2019-04-26T11:06:44.097Z,4.43
2019-04-26T11:09:14.887Z,4.00
2019-04-26T11:11:44.739Z,4.60
2019-04-26T11:14:14.044Z,4.07
2019-04-26T11:16:43.473Z,4.20
2019-04-26T11:19:12.493Z,4.60
2019-04-26T11:21:41.896Z,4.43
2019-04-26T11:24:11.002Z,4.70
2019-04-26T11:26:40.754Z,4.83
2019-04-26T11:29:10.770Z,5.03
2019-04-26T11:31:40.373Z,4.67
2019-04-26T11:34:10.918Z,5.03
2019-04-26T11:36:41.706Z,5.00
2019-04-26T11:39:14.307Z,4.80
2019-04-26T11:41:43.580Z,4.77
2019-04-26T11:44:13.566Z,5.10
2019-04-26T11:46:45.122Z,4.23
2019-04-26T11:49:13.960Z,5.23
2019-04-26T11:51:43.180Z,3.80
2019-04-26T11:54:16.926Z,4.87
2019-04-26T11:56:44.787Z,4.00
2019-04-26T11:59:14.181Z,4.70
2019-04-26T12:01:44.199Z,4.63
2019-04-26T12:04:35.968Z,4.60
2019-04-26T12:07:15.186Z,4.37
2019-04-26T12:09:46.711Z,4.97
2019-04-26T12:12:16.058Z,4.97
2019-04-26T12:14:45.355Z,4.70
2019-04-26T12:17:14.606Z,4.80
2019-04-26T12:19:44.120Z,5.27
2019-04-26T12:22:13.702Z,4.83
2019-04-26T12:24:43.219Z,4.90
2019-04-26T12:27:12.298Z,4.20
2019-04-26T12:29:44.245Z,4.37
2019-04-26T12:32:13.159Z,4.20
2019-04-26T12:34:45.165Z,4.77
2019-04-26T12:37:19.916Z,4.30
2019-04-26T12:39:48.314Z,4.27
2019-04-26T12:42:24.295Z,3.90
2019-04-26T12:45:27.281Z,4.40
2019-04-26T12:47:58.616Z,3.97
2019-04-26T12:50:29.465Z,3.73
2019-04-26T12:52:59.464Z,3.57
2019-04-26T12:55:29.510Z,3.30
2019-04-26T12:57:58.534Z,3.40
2019-04-26T13:00:33.056Z,3.90
2019-04-26T13:03:03.323Z,3.47
2019-04-26T13:05:35.075Z,4.10
2019-04-26T13:08:04.451Z,3.53
2019-04-26T13:10:52.458Z,4.77
2019-04-26T13:13:40.536Z,4.33
2019-04-26T13:16:21.821Z,4.20
2019-04-26T13:18:51.650Z,4.60
2019-04-26T13:21:21.301Z,3.93
2019-04-26T13:23:50.700Z,4.30
2019-04-26T13:26:20.120Z,4.37
2019-04-26T13:28:52.409Z,4.63
2019-04-26T13:31:20.937Z,3.87
2019-04-26T13:33:50.219Z,4.10
2019-04-26T13:36:19.513Z,3.97
2019-04-26T13:38:48.611Z,4.33
2019-04-26T13:41:18.237Z,4.27
2019-04-26T13:43:47.860Z,4.33
2019-04-26T13:46:40.749Z,3.63
2019-04-26T13:49:21.581Z,4.30
2019-04-26T13:51:51.304Z,4.87
2019-04-26T13:54:22.700Z,5.87
2019-04-26T13:56:51.919Z,6.13
2019-04-26T13:59:21.409Z,6.50
2019-04-26T14:01:50.978Z,7.03
2019-04-26T14:04:20.007Z,6.03
2019-04-26T14:06:49.358Z,5.83
2019-04-26T14:09:18.558Z,6.23
2019-04-26T14:11:48.194Z,6.47
2019-04-26T14:14:17.513Z,7.47
2019-04-26T14:16:46.658Z,6.83
2019-04-26T14:19:16.897Z,6.77
2019-04-26T14:21:46.734Z,7.77
2019-04-26T14:24:33.482Z,7.93
2019-04-26T14:27:10.475Z,8.67
2019-04-26T14:29:38.517Z,7.93
2019-04-26T14:32:08.083Z,9.17
2019-04-26T14:34:40.453Z,8.20
2019-04-26T14:37:11.146Z,9.17
2019-04-26T14:39:49.975Z,8.30
2019-04-26T14:42:10.192Z,8.40
2019-04-26T14:44:49.160Z,7.10
2019-04-26T14:47:14.754Z,7.13
2019-04-26T14:49:43.117Z,6.83
2019-04-26T14:52:12.687Z,7.93
2019-04-26T14:54:46.107Z,8.37
2019-04-26T14:57:21.385Z,8.37
2019-04-26T14:59:47.661Z,6.27
2019-04-26T15:02:56.224Z,5.60
2019-04-26T15:05:43.126Z,5.60
2019-04-26T15:08:11.709Z,6.57
2019-04-26T15:10:46.754Z,5.70
2019-04-26T15:13:19.889Z,6.50
2019-04-26T15:15:46.115Z,6.33
2019-04-26T15:18:15.748Z,6.50
2019-04-26T15:20:45.271Z,5.57
2019-04-26T15:23:14.546Z,5.57
2019-04-26T15:25:48.316Z,5.03
2019-04-26T15:28:14.772Z,5.03
2019-04-26T15:30:46.796Z,4.67
2019-04-26T15:33:15.917Z,4.40
2019-04-26T15:35:46.102Z,5.57
2019-04-26T15:38:15.445Z,4.63
2019-04-26T15:41:11.566Z,5.30
2019-04-26T15:43:53.419Z,5.07
2019-04-26T15:46:42.626Z,4.77
2019-04-26T15:49:34.736Z,4.33
2019-04-26T15:52:02.554Z,3.97
2019-04-26T15:54:35.764Z,3.73
2019-04-26T15:57:06.774Z,3.50
2019-04-26T15:59:36.383Z,3.90
2019-04-26T16:02:06.029Z,3.53
2019-04-26T16:04:35.338Z,3.37
2019-04-26T16:07:05.577Z,3.00
2019-04-26T16:09:35.024Z,2.50
2019-04-26T16:12:04.503Z,2.90
2019-04-26T16:14:36.747Z,2.80
2019-04-26T16:17:06.615Z,2.90
2019-04-26T16:19:38.927Z,2.80
2019-04-26T16:22:08.422Z,2.90
2019-04-26T16:24:38.507Z,2.97
2019-04-26T16:27:08.154Z,2.13
2019-04-26T16:29:58.370Z,2.37
2019-04-26T16:32:43.237Z,2.77
2019-04-26T16:35:12.924Z,2.50
2019-04-26T16:37:43.694Z,2.30
2019-04-26T16:40:14.046Z,2.10
2019-04-26T16:42:43.638Z,2.20
2019-04-26T16:45:12.940Z,1.87
2019-04-26T16:47:47.368Z,1.43
2019-04-26T16:50:15.010Z,1.90
2019-04-26T16:52:47.748Z,2.20
2019-04-26T16:55:20.855Z,1.93
2019-04-26T16:57:53.784Z,2.40
2019-04-26T17:00:17.428Z,1.90
2019-04-26T17:02:46.642Z,2.23
2019-04-26T17:05:20.885Z,2.13
2019-04-26T17:07:46.662Z,2.77
2019-04-26T17:10:16.635Z,2.57
2019-04-26T17:12:50.770Z,3.00
2019-04-26T17:15:21.141Z,3.20
2019-04-26T17:17:50.525Z,3.70
2019-04-26T17:20:19.190Z,3.60
2019-04-26T17:23:06.293Z,4.03
2019-04-26T17:25:55.146Z,4.20
2019-04-26T17:28:26.231Z,4.40
2019-04-26T17:30:53.636Z,5.43
2019-04-26T17:33:28.072Z,7.20
2019-04-26T17:35:54.402Z,8.17
2019-04-26T17:38:23.965Z,7.40
2019-04-26T17:40:53.378Z,7.87
2019-04-26T17:43:22.447Z,7.30
2019-04-26T17:45:52.076Z,9.27
2019-04-26T17:48:21.251Z,10.13
2019-04-26T17:50:50.723Z,13.67
2019-04-26T17:53:28.631Z,12.90
2019-04-26T17:55:54.814Z,14.20
2019-04-26T17:58:27.446Z,14.70
2019-04-26T18:00:56.559Z,16.10
2019-04-26T18:03:24.585Z,15.40
2019-04-26T18:05:57.069Z,15.83
2019-04-26T18:08:41.120Z,16.50
2019-04-26T18:11:05.393Z,17.70
2019-04-26T18:13:34.925Z,17.33
2019-04-26T18:16:04.325Z,18.67
2019-04-26T18:18:54.373Z,19.57
2019-04-26T18:21:40.600Z,19.87
2019-04-26T18:24:10.316Z,19.37
2019-04-26T18:26:39.935Z,21.60
2019-04-26T18:29:09.270Z,22.30
2019-04-26T18:31:38.645Z,22.47
2019-04-26T18:34:08.063Z,22.17
2019-04-26T18:36:37.647Z,21.73
2019-04-26T18:39:11.714Z,23.63
2019-04-26T18:41:41.130Z,22.43
2019-04-26T18:44:14.439Z,23.40
2019-04-26T18:46:49.676Z,21.83
2019-04-26T18:49:26.988Z,23.73
2019-04-26T18:51:54.648Z,23.83
2019-04-26T18:54:29.661Z,25.00
2019-04-26T18:57:03.194Z,28.50
2019-04-26T18:59:34.190Z,25.60
2019-04-26T19:02:04.035Z,23.87
2019-04-26T19:04:33.935Z,24.17
2019-04-26T19:07:12.047Z,23.63
2019-04-26T19:09:56.761Z,23.90
2019-04-26T19:12:41.240Z,24.50
2019-04-26T19:15:11.970Z,24.97
2019-04-26T19:17:48.411Z,25.53
2019-04-26T19:20:43.147Z,25.63
2019-04-26T19:23:12.784Z,23.90
2019-04-26T19:25:46.242Z,25.40
2019-04-26T19:28:15.362Z,26.20
2019-04-26T19:30:50.977Z,26.30
2019-04-26T19:33:23.116Z,26.10
2019-04-26T19:35:54.718Z,25.73
2019-04-26T19:38:33.136Z,28.63
2019-04-26T19:41:03.017Z,26.70
2019-04-26T19:43:35.054Z,27.83
2019-04-26T19:46:16.944Z,27.50
2019-04-26T19:49:03.444Z,28.07
2019-04-26T19:51:44.287Z,27.07
2019-04-26T19:54:38.498Z,27.27
2019-04-26T19:57:21.745Z,29.30
2019-04-26T19:59:58.296Z,28.33
2019-04-26T20:02:35.882Z,27.53
2019-04-26T20:05:02.396Z,26.47
2019-04-26T20:07:33.383Z,27.47
2019-04-26T20:10:05.096Z,27.10
2019-04-26T20:12:37.840Z,27.47
2019-04-26T20:15:05.300Z,28.70
2019-04-26T20:17:34.777Z,29.07
2019-04-26T20:20:16.592Z,28.93
2019-04-26T20:22:35.014Z,28.70
2019-04-26T20:25:04.741Z,29.73
2019-04-26T20:27:34.180Z,29.07
2019-04-26T20:30:05.391Z,30.40
2019-04-26T20:32:37.251Z,29.60
2019-04-26T20:35:13.211Z,29.80
2019-04-26T20:37:45.159Z,28.93
2019-04-26T20:40:22.170Z,29.80
2019-04-26T20:42:46.817Z,29.33
2019-04-26T20:45:16.999Z,30.30
2019-04-26T20:47:46.812Z,31.30
2019-04-26T20:50:17.574Z,30.60
2019-04-26T20:52:46.763Z,30.17
2019-04-26T20:55:16.017Z,30.20
2019-04-26T20:57:45.214Z,30.13
2019-04-26T21:00:15.376Z,29.70
2019-04-26T21:02:44.647Z,29.30
2019-04-26T21:05:14.787Z,29.10
2019-04-26T21:07:49.220Z,29.57
2019-04-26T21:10:21.690Z,32.53
2019-04-26T21:12:52.284Z,30.87
2019-04-26T21:15:20.379Z,31.67
2019-04-26T21:17:49.702Z,32.27
2019-04-26T21:20:27.698Z,32.00
2019-04-26T21:23:01.742Z,30.23
2019-04-26T21:25:41.971Z,30.67
2019-04-26T21:28:17.452Z,30.20
2019-04-26T21:30:55.475Z,33.13
2019-04-26T21:33:28.667Z,33.33
2019-04-26T21:36:36.212Z,32.10
2019-04-26T21:39:15.999Z,31.87
2019-04-26T21:41:48.299Z,31.10
2019-04-26T21:44:17.242Z,30.93
2019-04-26T21:46:49.529Z,32.63
2019-04-26T21:49:20.641Z,30.83
2019-04-26T21:52:10.479Z,31.47
2019-04-26T21:54:39.952Z,31.93
2019-04-26T21:57:11.741Z,33.13
2019-04-26T21:59:46.194Z,32.37
2019-04-26T22:02:15.982Z,31.43
2019-04-26T22:04:45.346Z,32.83
2019-04-26T22:07:16.217Z,31.47
2019-04-26T22:10:09.213Z,33.00
2019-04-26T22:12:36.544Z,31.53
2019-04-26T22:15:35.815Z,32.37
2019-04-26T22:18:10.233Z,31.93
2019-04-26T22:20:50.769Z,31.87
2019-04-26T22:23:43.666Z,31.97
2019-04-26T22:26:14.264Z,31.23
2019-04-26T22:28:44.346Z,31.50
2019-04-26T22:31:13.678Z,33.63
2019-04-26T22:33:44.570Z,30.63
2019-04-26T22:36:14.011Z,32.70
2019-04-26T22:38:43.114Z,30.87
2019-04-26T22:41:13.425Z,32.00
2019-04-26T22:43:49.711Z,32.43
2019-04-26T22:46:46.591Z,33.23
2019-04-26T22:49:08.687Z,32.10
2019-04-26T22:51:37.833Z,32.50
2019-04-26T22:54:07.437Z,32.07
2019-04-26T22:56:37.195Z,32.07
2019-04-26T22:59:08.164Z,33.23
2019-04-26T23:01:39.223Z,32.13
2019-04-26T23:04:09.746Z,34.70
2019-04-26T23:06:42.459Z,32.90
2019-04-26T23:09:11.618Z,33.23
2019-04-26T23:11:46.579Z,33.00
2019-04-26T23:14:34.294Z,32.40
2019-04-26T23:17:27.193Z,31.20
2019-04-26T23:19:59.280Z,30.10
2019-04-26T23:22:31.086Z,30.27
2019-04-26T23:24:59.289Z,31.53
2019-04-26T23:27:28.729Z,31.47
2019-04-26T23:29:58.514Z,29.83
2019-04-26T23:32:28.294Z,29.30
2019-04-26T23:34:58.254Z,30.47
2019-04-26T23:37:28.524Z,29.63
2019-04-26T23:39:58.458Z,30.37
2019-04-26T23:42:27.951Z,28.33
2019-04-26T23:44:57.524Z,30.20
2019-04-26T23:47:27.129Z,29.23
2019-04-26T23:49:57.051Z,27.80
2019-04-26T23:52:27.207Z,29.20
2019-04-26T23:54:56.655Z,29.30
2019-04-26T23:57:27.345Z,28.87
